Time;durP1;ratioP1;P1;durP2;ratioP2;P2;SDS_P1;SDS_P2;PMS_P1;PMS_P2;Temp;Humidity;BMP_temperature;BMP_pressure;BME280_temperature;BME280_humidity;BME280_pressure;Samples;Min_cycle;Max_cycle;Signal;HPM_P1;HPM_P2
2022/08/24 00:00:19;;;;;;;;;;;24.80;66.90;;;;;;6308576;27;20988;-38
2022/08/24 00:03:21;;;;;;;;;;;24.70;66.70;;;;;;6316065;27;19927;-38
2022/08/24 00:06:24;;;;;;;;;;;24.90;66.90;;;;;;6293236;27;20047;-39
2022/08/24 00:09:25;;;;;;;;;;;24.50;66.70;;;;;;6319568;27;19923;-40
2022/08/24 00:12:27;;;;;;;;;;;24.60;66.70;;;;;;6306526;27;19958;-39
2022/08/24 00:15:28;;;;;;;;;;;24.60;66.70;;;;;;6294011;27;20101;-38
2022/08/24 00:18:32;;;;;;;;;;;24.90;66.90;;;;;;6322631;27;19919;-38
2022/08/24 00:21:34;;;;;;;;;;;24.50;66.70;;;;;;6314860;27;19927;-39
2022/08/24 00:24:35;;;;;;;;;;;24.70;66.90;;;;;;6311934;27;19972;-38
2022/08/24 00:27:37;;;;;;;;;;;24.50;66.80;;;;;;6307608;27;19923;-40
2022/08/24 00:30:39;;;;;;;;;;;24.70;66.90;;;;;;6287583;27;19927;-38
2022/08/24 00:33:41;;;;;;;;;;;24.50;66.80;;;;;;6318206;27;20056;-40
2022/08/24 00:36:42;;;;;;;;;;;24.70;66.90;;;;;;6311086;27;19955;-38
2022/08/24 00:39:44;;;;;;;;;;;24.50;66.90;;;;;;6313585;27;19924;-40
2022/08/24 00:42:45;;;;;;;;;;;24.60;66.90;;;;;;6305803;27;20038;-39
2022/08/24 00:45:50;;;;;;;;;;;24.50;66.90;;;;;;6308967;27;20906;-38
2022/08/24 00:48:58;;;;;;;;;;;24.60;66.90;;;;;;6309787;27;20924;-38
2022/08/24 00:52:02;;;;;;;;;;;24.60;66.90;;;;;;6318141;27;20384;-38
2022/08/24 00:55:07;;;;;;;;;;;24.70;66.90;;;;;;6293248;27;20397;-40
2022/08/24 00:58:10;;;;;;;;;;;24.70;67.00;;;;;;6283703;27;20036;-39
2022/08/24 01:01:18;;;;;;;;;;;24.70;67.00;;;;;;6291961;27;20813;-40
2022/08/24 01:04:27;;;;;;;;;;;24.50;66.90;;;;;;6277783;27;20648;-38
2022/08/24 01:07:30;;;;;;;;;;;24.30;66.80;;;;;;6300464;27;20348;-39
2022/08/24 01:10:32;;;;;;;;;;;24.60;67.00;;;;;;6307168;27;20600;-39
2022/08/24 01:13:34;;;;;;;;;;;24.30;67.40;;;;;;6304978;27;20050;-38
2022/08/24 01:19:54;;;;;;;;;;;24.70;67.10;;;;;;6303457;27;19931;-38
2022/08/24 01:23:04;;;;;;;;;;;24.40;66.90;;;;;;6306731;27;20219;-38
2022/08/24 01:26:09;;;;;;;;;;;24.60;67.00;;;;;;6303769;27;19927;-38
2022/08/24 01:29:14;;;;;;;;;;;24.40;66.90;;;;;;6305708;27;19923;-38
2022/08/24 01:32:18;;;;;;;;;;;24.70;67.10;;;;;;6286219;27;20177;-39
2022/08/24 01:35:19;;;;;;;;;;;24.40;66.90;;;;;;6306372;27;20592;-39
2022/08/24 01:38:21;;;;;;;;;;;24.60;67.10;;;;;;6301774;27;20232;-40
2022/08/24 01:41:23;;;;;;;;;;;24.40;67.00;;;;;;6303034;27;19923;-39
2022/08/24 01:44:32;;;;;;;;;;;24.60;67.10;;;;;;6309060;27;19945;-38
2022/08/24 01:47:34;;;;;;;;;;;24.30;66.90;;;;;;6283662;27;19923;-38
2022/08/24 01:50:36;;;;;;;;;;;24.70;67.10;;;;;;6302764;27;20334;-38
2022/08/24 01:53:37;;;;;;;;;;;24.40;67.00;;;;;;6303662;27;20546;-38
2022/08/24 01:56:40;;;;;;;;;;;24.80;67.20;;;;;;6303277;27;19929;-40
2022/08/24 01:59:42;;;;;;;;;;;24.40;67.00;;;;;;6300868;27;21850;-38
2022/08/24 02:02:43;;;;;;;;;;;24.30;66.90;;;;;;6303823;27;20405;-38
2022/08/24 02:05:45;;;;;;;;;;;24.60;67.10;;;;;;6300326;27;20235;-38
2022/08/24 02:08:48;;;;;;;;;;;24.70;67.30;;;;;;6303035;27;20031;-38
2022/08/24 02:11:50;;;;;;;;;;;24.40;67.00;;;;;;6282563;27;20064;-39
2022/08/24 02:14:52;;;;;;;;;;;24.70;67.20;;;;;;6301404;27;20214;-39
2022/08/24 02:17:53;;;;;;;;;;;24.50;67.10;;;;;;6303230;27;19923;-38
2022/08/24 02:20:55;;;;;;;;;;;24.20;66.90;;;;;;6304640;27;19962;-40
2022/08/24 02:23:59;;;;;;;;;;;24.30;67.00;;;;;;6300043;27;19927;-38
2022/08/24 02:27:04;;;;;;;;;;;24.30;67.00;;;;;;6300805;27;20187;-38
2022/08/24 02:30:06;;;;;;;;;;;24.60;67.10;;;;;;6283298;27;19923;-38
2022/08/24 02:33:07;;;;;;;;;;;24.30;66.90;;;;;;6299436;27;20485;-38
2022/08/24 02:36:10;;;;;;;;;;;24.40;67.00;;;;;;6307075;27;19923;-38
2022/08/24 02:39:30;;;;;;;;;;;24.70;67.20;;;;;;6278962;27;20089;-38
2022/08/24 02:42:36;;;;;;;;;;;24.30;67.00;;;;;;6306629;27;20208;-38
2022/08/24 02:45:38;;;;;;;;;;;24.40;67.00;;;;;;6298658;27;20002;-38
2022/08/24 02:48:39;;;;;;;;;;;24.50;67.10;;;;;;6310974;27;20083;-40
2022/08/24 02:51:46;;;;;;;;;;;24.30;67.00;;;;;;6300210;27;20260;-38
2022/08/24 02:54:55;;;;;;;;;;;24.30;67.00;;;;;;6307846;27;19965;-39
2022/08/24 02:57:57;;;;;;;;;;;24.60;67.20;;;;;;6280581;27;19935;-38
2022/08/24 03:00:59;;;;;;;;;;;24.30;67.10;;;;;;6309869;27;19990;-38
2022/08/24 03:04:00;;;;;;;;;;;24.50;67.20;;;;;;6306951;27;20165;-38
2022/08/24 03:07:03;;;;;;;;;;;24.40;67.10;;;;;;6304830;27;21081;-38
2022/08/24 03:10:05;;;;;;;;;;;24.20;67.00;;;;;;6303284;27;20038;-39
2022/08/24 03:13:08;;;;;;;;;;;24.20;67.00;;;;;;6302006;27;20046;-38
2022/08/24 03:16:10;;;;;;;;;;;24.60;67.40;;;;;;6304276;27;20422;-38
2022/08/24 03:19:12;;;;;;;;;;;24.30;67.10;;;;;;6308153;27;20750;-38
2022/08/24 03:22:16;;;;;;;;;;;24.30;67.10;;;;;;6286990;27;19924;-38
2022/08/24 03:25:19;;;;;;;;;;;24.30;67.10;;;;;;6306070;27;19924;-39
2022/08/24 03:28:22;;;;;;;;;;;24.60;67.20;;;;;;6274117;27;20105;-38
2022/08/24 03:31:25;;;;;;;;;;;24.70;67.30;;;;;;6303754;27;19962;-38
2022/08/24 03:34:27;;;;;;;;;;;24.20;67.00;;;;;;6304596;27;20978;-39
2022/08/24 03:37:28;;;;;;;;;;;24.30;67.10;;;;;;6301107;27;20384;-40
2022/08/24 03:40:32;;;;;;;;;;;24.50;67.20;;;;;;6314637;27;19927;-38
2022/08/24 03:46:52;;;;;;;;;;;24.50;67.20;;;;;;6288341;27;20711;-38
2022/08/24 03:49:56;;;;;;;;;;;24.10;67.00;;;;;;6307214;27;19927;-38
2022/08/24 03:52:57;;;;;;;;;;;24.20;67.10;;;;;;6315914;27;19919;-38
2022/08/24 03:55:59;;;;;;;;;;;24.30;67.10;;;;;;6312239;27;19927;-39
2022/08/24 03:59:09;;;;;;;;;;;24.40;67.20;;;;;;6307533;27;19933;-39
2022/08/24 04:02:14;;;;;;;;;;;24.30;67.10;;;;;;6286290;27;20299;-38
2022/08/24 04:05:15;;;;;;;;;;;24.10;67.00;;;;;;6306002;27;20388;-38
2022/08/24 04:08:17;;;;;;;;;;;24.30;67.20;;;;;;6304235;27;20051;-39
2022/08/24 04:11:20;;;;;;;;;;;24.20;67.10;;;;;;6304606;27;20653;-38
2022/08/24 04:14:22;;;;;;;;;;;24.10;67.00;;;;;;6288519;27;20041;-38
2022/08/24 04:17:36;;;;;;;;;;;24.60;67.30;;;;;;6310066;27;19920;-39
2022/08/24 04:20:38;;;;;;;;;;;24.20;67.10;;;;;;6302102;27;20167;-39
2022/08/24 04:23:41;;;;;;;;;;;24.40;67.20;;;;;;6279834;27;19927;-38
2022/08/24 04:26:50;;;;;;;;;;;24.20;67.20;;;;;;6297814;27;19927;-38
2022/08/24 04:29:52;;;;;;;;;;;24.30;67.10;;;;;;6305623;27;19927;-38
2022/08/24 04:32:55;;;;;;;;;;;24.10;67.00;;;;;;6302703;27;19948;-39
2022/08/24 04:35:56;;;;;;;;;;;24.40;67.20;;;;;;6299652;27;20583;-39
2022/08/24 04:39:00;;;;;;;;;;;24.30;67.20;;;;;;6300007;27;20431;-38
2022/08/24 04:42:20;;;;;;;;;;;24.60;67.30;;;;;;6302562;27;19938;-38
2022/08/24 04:45:23;;;;;;;;;;;24.10;67.00;;;;;;6300064;27;20285;-38
2022/08/24 04:48:25;;;;;;;;;;;24.20;67.00;;;;;;6298771;27;19950;-39
2022/08/24 04:51:26;;;;;;;;;;;24.30;67.10;;;;;;6297576;27;19927;-39
2022/08/24 04:54:33;;;;;;;;;;;24.30;67.20;;;;;;6294620;27;20415;-38
2022/08/24 04:57:54;;;;;;;;;;;24.00;67.00;;;;;;6295337;27;19923;-38
2022/08/24 05:00:56;;;;;;;;;;;24.20;67.10;;;;;;6296028;27;20068;-38
2022/08/24 05:03:59;;;;;;;;;;;24.30;67.20;;;;;;6300352;27;19927;-38
2022/08/24 05:07:00;;;;;;;;;;;24.20;67.10;;;;;;6295337;27;20432;-38
2022/08/24 05:10:02;;;;;;;;;;;24.20;67.20;;;;;;6307821;27;19927;-38
2022/08/24 05:13:08;;;;;;;;;;;24.20;67.80;;;;;;6304895;27;20036;-40
2022/08/24 05:16:12;;;;;;;;;;;24.10;67.10;;;;;;6276846;27;20081;-38
2022/08/24 05:19:16;;;;;;;;;;;24.40;67.20;;;;;;6285497;27;19969;-38
2022/08/24 05:22:17;;;;;;;;;;;24.00;67.00;;;;;;6294203;27;19935;-40
2022/08/24 05:25:23;;;;;;;;;;;24.20;67.20;;;;;;6295434;27;19963;-38
2022/08/24 05:28:25;;;;;;;;;;;24.00;67.00;;;;;;6304401;27;19970;-38
2022/08/24 05:31:29;;;;;;;;;;;24.20;67.10;;;;;;6296418;27;19923;-38
2022/08/24 05:34:32;;;;;;;;;;;24.30;67.10;;;;;;6291871;27;20671;-38
2022/08/24 05:37:34;;;;;;;;;;;24.30;67.10;;;;;;6277486;27;19935;-40
2022/08/24 05:40:46;;;;;;;;;;;24.00;67.00;;;;;;6262540;28;20312;-41
2022/08/24 05:43:48;;;;;;;;;;;24.10;67.00;;;;;;6289325;27;20007;-38
2022/08/24 05:46:50;;;;;;;;;;;24.20;67.10;;;;;;6296590;27;19928;-38
2022/08/24 05:49:52;;;;;;;;;;;24.30;67.10;;;;;;6283526;27;20351;-38
2022/08/24 05:52:54;;;;;;;;;;;24.10;67.00;;;;;;6278302;27;20331;-38
2022/08/24 05:55:59;;;;;;;;;;;24.20;67.10;;;;;;6277860;27;20320;-39
2022/08/24 05:59:04;;;;;;;;;;;24.00;67.10;;;;;;6274920;27;19934;-40
2022/08/24 06:02:07;;;;;;;;;;;23.80;67.00;;;;;;6294478;27;20003;-38
2022/08/24 06:05:08;;;;;;;;;;;24.10;67.20;;;;;;6276654;27;20508;-38
2022/08/24 06:08:10;;;;;;;;;;;23.90;67.10;;;;;;6267791;27;19927;-39
2022/08/24 06:11:12;;;;;;;;;;;24.20;67.40;;;;;;6290713;27;20977;-38
2022/08/24 06:14:14;;;;;;;;;;;23.90;67.10;;;;;;6271154;27;19927;-38
2022/08/24 06:17:28;;;;;;;;;;;23.80;67.00;;;;;;6273560;27;20006;-38
2022/08/24 06:20:31;;;;;;;;;;;24.30;67.20;;;;;;6244641;27;20002;-38
2022/08/24 06:23:33;;;;;;;;;;;24.10;67.00;;;;;;6231890;27;23669;-41
2022/08/24 06:29:56;;;;;;;;;;;24.10;67.00;;;;;;6268699;27;19927;-38
2022/08/24 06:33:15;;;;;;;;;;;24.00;66.90;;;;;;6238984;27;19927;-38
2022/08/24 06:36:20;;;;;;;;;;;24.00;66.90;;;;;;6261079;27;20198;-40
2022/08/24 06:39:23;;;;;;;;;;;24.20;67.00;;;;;;6193495;27;19945;-40
2022/08/24 06:42:29;;;;;;;;;;;24.20;67.00;;;;;;6235965;27;20018;-38
2022/08/24 06:45:33;;;;;;;;;;;24.00;67.00;;;;;;6244016;27;19928;-41
2022/08/24 06:48:36;;;;;;;;;;;24.00;66.90;;;;;;6239497;27;20985;-39
2022/08/24 06:51:38;;;;;;;;;;;24.10;66.90;;;;;;6215873;27;19931;-40
2022/08/24 06:54:41;;;;;;;;;;;24.30;67.00;;;;;;6172232;27;20053;-39
2022/08/24 06:57:43;;;;;;;;;;;24.00;66.80;;;;;;6198266;27;19927;-41
2022/08/24 07:00:45;;;;;;;;;;;24.00;66.70;;;;;;6172825;27;19935;-40
2022/08/24 07:03:47;;;;;;;;;;;24.20;66.70;;;;;;6106446;28;20464;-40
2022/08/24 07:07:00;;;;;;;;;;;24.50;66.70;;;;;;6151757;27;19928;-42
2022/08/24 07:10:08;;;;;;;;;;;24.20;66.40;;;;;;6157319;27;20057;-41
2022/08/24 07:13:10;;;;;;;;;;;24.60;66.50;;;;;;6128121;27;19927;-43
2022/08/24 07:16:13;;;;;;;;;;;24.40;66.30;;;;;;6109059;27;31954;-40
2022/08/24 07:19:17;;;;;;;;;;;24.40;66.20;;;;;;6139944;27;26803;-38
2022/08/24 07:22:18;;;;;;;;;;;24.50;66.10;;;;;;6125587;27;20013;-40
2022/08/24 07:25:20;;;;;;;;;;;24.50;66.00;;;;;;6146382;27;19927;-41
2022/08/24 07:28:22;;;;;;;;;;;24.50;65.90;;;;;;6147025;27;19963;-40
2022/08/24 07:31:36;;;;;;;;;;;24.50;65.90;;;;;;6076701;27;19934;-39
2022/08/24 07:34:45;;;;;;;;;;;24.40;65.80;;;;;;6044387;27;20590;-38
2022/08/24 07:37:47;;;;;;;;;;;24.70;65.80;;;;;;6093229;27;19931;-38
2022/08/24 07:40:48;;;;;;;;;;;24.50;65.70;;;;;;6090035;27;19934;-39
2022/08/24 07:44:11;;;;;;;;;;;24.70;65.80;;;;;;6087866;27;21218;-40
2022/08/24 07:47:13;;;;;;;;;;;24.60;65.60;;;;;;6116853;27;20054;-43
2022/08/24 07:50:37;;;;;;;;;;;24.70;65.60;;;;;;6089275;27;21229;-41
2022/08/24 07:53:40;;;;;;;;;;;24.70;65.50;;;;;;6130596;27;19934;-41
2022/08/24 07:56:58;;;;;;;;;;;24.80;65.50;;;;;;6110038;27;31196;-40
2022/08/24 08:00:05;;;;;;;;;;;24.70;65.30;;;;;;6097941;27;20065;-40
2022/08/24 08:03:15;;;;;;;;;;;24.80;65.40;;;;;;6125613;27;20011;-41
2022/08/24 08:06:19;;;;;;;;;;;24.90;65.40;;;;;;6149877;27;20410;-41
2022/08/24 08:09:23;;;;;;;;;;;24.90;65.30;;;;;;6117272;27;19932;-42
2022/08/24 08:12:25;;;;;;;;;;;24.80;65.20;;;;;;6136479;27;19939;-41
2022/08/24 08:15:30;;;;;;;;;;;24.90;65.30;;;;;;6165164;27;20047;-39
2022/08/24 08:18:38;;;;;;;;;;;24.50;65.10;;;;;;6103540;27;24732;-52
2022/08/24 08:25:02;;;;;;;;;;;24.90;65.40;;;;;;6111393;27;19928;-40
2022/08/24 08:28:04;;;;;;;;;;;24.70;65.30;;;;;;6140384;27;19928;-39
2022/08/24 08:31:26;;;;;;;;;;;25.00;65.60;;;;;;6137651;27;20919;-40
2022/08/24 08:34:30;;;;;;;;;;;24.80;65.30;;;;;;6169266;27;19977;-40
2022/08/24 08:37:32;;;;;;;;;;;25.00;65.40;;;;;;6142975;27;19928;-38
2022/08/24 08:40:47;;;;;;;;;;;25.00;65.30;;;;;;6101789;27;20831;-39
2022/08/24 08:43:56;;;;;;;;;;;24.80;65.40;;;;;;6083423;27;29341;-40
2022/08/24 08:47:04;;;;;;;;;;;24.90;65.00;;;;;;6109903;27;26579;-39
2022/08/24 08:50:13;;;;;;;;;;;25.10;65.10;;;;;;6133748;27;19934;-39
2022/08/24 08:53:26;;;;;;;;;;;25.10;65.10;;;;;;6106926;27;20012;-44
2022/08/24 08:56:34;;;;;;;;;;;25.10;65.00;;;;;;6146829;27;19962;-40
2022/08/24 08:59:43;;;;;;;;;;;25.10;64.90;;;;;;6102366;27;19934;-39
2022/08/24 09:02:54;;;;;;;;;;;25.00;64.90;;;;;;6105308;27;32199;-39
2022/08/24 09:06:09;;;;;;;;;;;25.20;65.00;;;;;;6078058;27;21819;-38
2022/08/24 09:09:20;;;;;;;;;;;25.40;65.20;;;;;;6116703;27;19934;-40
2022/08/24 09:12:29;;;;;;;;;;;25.30;65.30;;;;;;6121537;27;19927;-38
2022/08/24 09:15:42;;;;;;;;;;;25.30;65.40;;;;;;6112220;27;29640;-40
2022/08/24 09:18:49;;;;;;;;;;;25.40;64.90;;;;;;6093328;27;25518;-40
2022/08/24 09:21:58;;;;;;;;;;;25.40;64.80;;;;;;6087528;27;29570;-38
2022/08/24 09:25:06;;;;;;;;;;;25.40;64.80;;;;;;6072230;27;33953;-40
2022/08/24 09:28:15;;;;;;;;;;;25.50;64.90;;;;;;6084306;27;21438;-38
2022/08/24 09:31:25;;;;;;;;;;;25.50;64.80;;;;;;6132195;27;20686;-39
2022/08/24 09:34:33;;;;;;;;;;;25.30;64.60;;;;;;6113394;27;19994;-39
2022/08/24 09:37:42;;;;;;;;;;;25.50;64.70;;;;;;6108839;27;20032;-39
2022/08/24 09:40:59;;;;;;;;;;;25.60;64.80;;;;;;6094502;27;28104;-39
2022/08/24 09:44:13;;;;;;;;;;;25.50;64.70;;;;;;6100658;27;19928;-39
2022/08/24 09:47:32;;;;;;;;;;;25.70;65.40;;;;;;6078875;27;19927;-39
2022/08/24 09:50:44;;;;;;;;;;;25.40;64.60;;;;;;6111681;27;25451;-39
2022/08/24 09:54:01;;;;;;;;;;;25.60;64.80;;;;;;6148430;27;24023;-40
2022/08/24 09:57:15;;;;;;;;;;;25.60;64.80;;;;;;6118721;27;20000;-40
2022/08/24 10:00:24;;;;;;;;;;;25.80;64.50;;;;;;6117797;27;21184;-38
2022/08/24 10:03:28;;;;;;;;;;;25.60;64.80;;;;;;6109900;27;19927;-38
2022/08/24 10:06:49;;;;;;;;;;;25.50;64.80;;;;;;6158517;27;20069;-38
2022/08/24 10:09:57;;;;;;;;;;;25.60;64.80;;;;;;6125839;27;21440;-39
2022/08/24 10:13:08;;;;;;;;;;;25.80;65.10;;;;;;6124740;27;19933;-39
2022/08/24 10:16:15;;;;;;;;;;;25.20;64.60;;;;;;6126730;27;19933;-39
2022/08/24 10:19:24;;;;;;;;;;;25.60;65.00;;;;;;6144388;27;21977;-39
2022/08/24 10:22:33;;;;;;;;;;;25.60;65.00;;;;;;6173411;27;19929;-39
2022/08/24 10:25:38;;;;;;;;;;;25.50;65.00;;;;;;6188810;27;19930;-39
2022/08/24 10:28:50;;;;;;;;;;;25.60;65.20;;;;;;6160897;27;19934;-40
2022/08/24 10:31:59;;;;;;;;;;;25.50;65.20;;;;;;6209152;27;19981;-40
2022/08/24 10:35:02;;;;;;;;;;;25.70;65.50;;;;;;6210402;27;19927;-39
2022/08/24 10:41:41;;;;;;;;;;;25.30;65.10;;;;;;6207379;27;19934;-39
2022/08/24 10:44:46;;;;;;;;;;;25.50;65.30;;;;;;6233829;27;19970;-40
2022/08/24 10:47:57;;;;;;;;;;;25.50;66.00;;;;;;6206583;27;19927;-40
2022/08/24 10:51:02;;;;;;;;;;;25.40;65.20;;;;;;6227714;27;19927;-40
2022/08/24 10:54:03;;;;;;;;;;;25.50;65.40;;;;;;6234718;27;20122;-39
2022/08/24 10:57:07;;;;;;;;;;;25.50;65.50;;;;;;6247854;27;20057;-40
2022/08/24 11:00:16;;;;;;;;;;;25.50;65.40;;;;;;6235252;27;20055;-40
2022/08/24 11:03:25;;;;;;;;;;;25.50;65.40;;;;;;6232179;27;19927;-40
2022/08/24 11:06:32;;;;;;;;;;;25.40;65.30;;;;;;6220630;27;19962;-39
2022/08/24 11:09:50;;;;;;;;;;;25.50;65.40;;;;;;6184003;27;19927;-40
2022/08/24 11:12:55;;;;;;;;;;;25.60;65.50;;;;;;6193077;27;21456;-39
2022/08/24 11:15:59;;;;;;;;;;;25.60;65.30;;;;;;6229757;27;19927;-39
2022/08/24 11:19:01;;;;;;;;;;;25.50;65.20;;;;;;6225046;27;19927;-40
2022/08/24 11:22:04;;;;;;;;;;;25.60;65.30;;;;;;6222655;27;19923;-39
2022/08/24 11:25:09;;;;;;;;;;;25.50;65.30;;;;;;6220377;27;19945;-40
2022/08/24 11:28:16;;;;;;;;;;;25.30;65.30;;;;;;6208863;27;19927;-38
2022/08/24 11:31:21;;;;;;;;;;;25.50;66.10;;;;;;6200235;27;19927;-38
2022/08/24 11:34:31;;;;;;;;;;;25.60;65.40;;;;;;6172464;27;20505;-40
2022/08/24 11:37:33;;;;;;;;;;;25.70;65.20;;;;;;6195899;27;20026;-40
2022/08/24 11:40:38;;;;;;;;;;;25.70;65.10;;;;;;6203498;27;20016;-39
2022/08/24 11:43:49;;;;;;;;;;;25.60;64.90;;;;;;6163034;27;19962;-40
2022/08/24 11:46:55;;;;;;;;;;;25.60;64.80;;;;;;6209067;27;19931;-39
2022/08/24 11:50:00;;;;;;;;;;;25.70;64.90;;;;;;6212037;27;19927;-39
2022/08/24 11:53:07;;;;;;;;;;;25.90;64.90;;;;;;6208237;27;19931;-40
2022/08/24 11:56:15;;;;;;;;;;;25.80;64.80;;;;;;6206209;27;20069;-38
2022/08/24 11:59:27;;;;;;;;;;;25.70;64.70;;;;;;6182719;27;26425;-38
2022/08/24 12:02:31;;;;;;;;;;;25.70;64.70;;;;;;6150936;27;19928;-40
2022/08/24 12:05:39;;;;;;;;;;;25.80;64.80;;;;;;6149063;27;19927;-37
2022/08/24 12:08:44;;;;;;;;;;;25.70;64.80;;;;;;6165394;27;19967;-39
2022/08/24 12:11:50;;;;;;;;;;;25.70;64.80;;;;;;6081512;27;19927;-38
2022/08/24 12:14:59;;;;;;;;;;;25.70;64.90;;;;;;6072707;27;27947;-38
2022/08/24 12:18:03;;;;;;;;;;;25.70;64.90;;;;;;6128476;27;19933;-38
2022/08/24 12:21:07;;;;;;;;;;;25.70;64.90;;;;;;6100848;27;33322;-38
2022/08/24 12:24:15;;;;;;;;;;;25.50;64.80;;;;;;6117865;27;20590;-37
2022/08/24 12:27:19;;;;;;;;;;;25.70;65.00;;;;;;6144170;27;19927;-37
2022/08/24 12:30:21;;;;;;;;;;;25.70;65.10;;;;;;6125539;27;20020;-40
2022/08/24 12:33:27;;;;;;;;;;;25.70;65.10;;;;;;6115012;27;20356;-38
2022/08/24 12:36:31;;;;;;;;;;;25.50;64.50;;;;;;6137401;27;19997;-37
2022/08/24 12:39:35;;;;;;;;;;;25.80;65.20;;;;;;6115859;27;21362;-40
2022/08/24 12:42:42;;;;;;;;;;;25.70;65.10;;;;;;6113967;27;23807;-38
2022/08/24 12:45:44;;;;;;;;;;;25.70;65.10;;;;;;6120782;27;25269;-39
2022/08/24 12:48:47;;;;;;;;;;;25.60;65.00;;;;;;6145200;27;19933;-38
2022/08/24 12:52:00;;;;;;;;;;;25.60;65.00;;;;;;6093843;27;21486;-39
2022/08/24 12:55:17;;;;;;;;;;;25.60;65.00;;;;;;6127426;27;19927;-38
2022/08/24 12:58:29;;;;;;;;;;;25.60;65.10;;;;;;6124744;27;30898;-37
2022/08/24 13:01:38;;;;;;;;;;;25.60;65.10;;;;;;6129296;27;19970;-37
2022/08/24 13:04:43;;;;;;;;;;;25.60;65.10;;;;;;6087715;27;19927;-37
2022/08/24 13:07:47;;;;;;;;;;;25.70;65.10;;;;;;6137853;27;19927;-39
2022/08/24 13:10:51;;;;;;;;;;;25.40;64.90;;;;;;6105049;27;19928;-37
2022/08/24 13:14:05;;;;;;;;;;;25.50;65.00;;;;;;6105748;27;21984;-40
2022/08/24 13:17:09;;;;;;;;;;;25.50;65.00;;;;;;6112249;27;20034;-40
2022/08/24 13:20:16;;;;;;;;;;;25.50;65.00;;;;;;6070599;27;31722;-39
2022/08/24 13:23:19;;;;;;;;;;;25.60;65.00;;;;;;6105900;27;34719;-40
2022/08/24 13:26:22;;;;;;;;;;;25.70;65.10;;;;;;6122738;27;21657;-38
2022/08/24 13:29:24;;;;;;;;;;;25.70;65.00;;;;;;6110953;27;21183;-39
2022/08/24 13:32:31;;;;;;;;;;;25.70;65.00;;;;;;6142101;27;19934;-40
2022/08/24 13:35:47;;;;;;;;;;;25.70;64.90;;;;;;6112464;27;20007;-40
2022/08/24 13:39:01;;;;;;;;;;;25.80;65.10;;;;;;6070977;27;20716;-40
2022/08/24 13:42:11;;;;;;;;;;;25.30;64.60;;;;;;6117389;27;20052;-40
2022/08/24 13:45:17;;;;;;;;;;;25.60;64.70;;;;;;6123645;27;19936;-38
2022/08/24 13:48:25;;;;;;;;;;;25.80;64.90;;;;;;6080069;27;19980;-40
2022/08/24 13:51:35;;;;;;;;;;;25.70;64.80;;;;;;6084916;27;20054;-41
2022/08/24 13:54:41;;;;;;;;;;;25.80;64.80;;;;;;6146604;27;19934;-40
2022/08/24 13:57:50;;;;;;;;;;;25.80;64.80;;;;;;6098939;27;20001;-38
2022/08/24 14:00:55;;;;;;;;;;;25.80;64.50;;;;;;6128047;27;22003;-39
2022/08/24 14:04:06;;;;;;;;;;;25.80;64.30;;;;;;6106961;27;20381;-38
2022/08/24 14:07:12;;;;;;;;;;;26.00;64.30;;;;;;6080907;27;19985;-39
2022/08/24 14:10:25;;;;;;;;;;;25.90;64.20;;;;;;6087758;27;30467;-39
2022/08/24 14:13:36;;;;;;;;;;;26.00;64.20;;;;;;6111931;27;19934;-40
2022/08/24 14:20:03;;;;;;;;;;;26.10;64.20;;;;;;6113222;27;19936;-38
2022/08/24 14:23:10;;;;;;;;;;;26.20;64.30;;;;;;6128556;27;20069;-41
2022/08/24 14:26:26;;;;;;;;;;;26.10;64.10;;;;;;6116328;27;19955;-40
2022/08/24 14:29:41;;;;;;;;;;;26.10;64.10;;;;;;6106521;27;32265;-38
2022/08/24 14:32:46;;;;;;;;;;;26.10;64.20;;;;;;6089947;27;32673;-39
2022/08/24 14:35:57;;;;;;;;;;;26.00;64.00;;;;;;6109433;27;41733;-39
2022/08/24 14:39:04;;;;;;;;;;;26.10;64.10;;;;;;6125741;27;19927;-40
2022/08/24 14:42:14;;;;;;;;;;;26.00;64.00;;;;;;6119228;27;27654;-39
2022/08/24 14:45:21;;;;;;;;;;;26.00;64.00;;;;;;6101053;27;32039;-39
2022/08/24 14:48:26;;;;;;;;;;;26.00;64.10;;;;;;6089248;27;31680;-38
2022/08/24 14:51:38;;;;;;;;;;;26.10;64.20;;;;;;6090404;27;21714;-41
2022/08/24 14:54:47;;;;;;;;;;;26.00;64.10;;;;;;6121663;27;29039;-40
2022/08/24 14:57:57;;;;;;;;;;;26.10;64.20;;;;;;6142146;27;19979;-39
2022/08/24 15:01:06;;;;;;;;;;;26.20;64.30;;;;;;6098648;27;27341;-41
2022/08/24 15:04:20;;;;;;;;;;;26.10;64.20;;;;;;6130394;27;21393;-38
2022/08/24 15:07:39;;;;;;;;;;;26.10;64.30;;;;;;6128546;27;19927;-40
2022/08/24 15:10:43;;;;;;;;;;;25.90;64.10;;;;;;6107716;27;20090;-39
2022/08/24 15:13:46;;;;;;;;;;;26.10;64.30;;;;;;6107761;27;19934;-40
2022/08/24 15:16:49;;;;;;;;;;;26.10;64.30;;;;;;6098047;27;22050;-40
2022/08/24 15:19:58;;;;;;;;;;;26.10;64.30;;;;;;6136497;27;22282;-38
2022/08/24 15:23:06;;;;;;;;;;;26.10;64.30;;;;;;6127561;27;31842;-40
2022/08/24 15:26:11;;;;;;;;;;;25.90;64.10;;;;;;6127317;27;19931;-40
2022/08/24 15:29:14;;;;;;;;;;;26.00;64.10;;;;;;6146844;27;20000;-38
2022/08/24 15:32:16;;;;;;;;;;;26.10;64.30;;;;;;6135467;27;19935;-41
2022/08/24 15:35:26;;;;;;;;;;;26.10;64.20;;;;;;6133555;27;20007;-42
2022/08/24 15:38:30;;;;;;;;;;;26.00;64.10;;;;;;6182365;27;19927;-41
2022/08/24 15:41:34;;;;;;;;;;;26.10;64.20;;;;;;6176167;27;19935;-39
2022/08/24 15:44:36;;;;;;;;;;;26.10;64.20;;;;;;6167401;27;19928;-38
2022/08/24 15:47:39;;;;;;;;;;;26.20;64.50;;;;;;6164458;27;21296;-38
2022/08/24 15:50:42;;;;;;;;;;;26.10;64.20;;;;;;6161721;27;19927;-39
2022/08/24 15:53:44;;;;;;;;;;;26.10;64.20;;;;;;6155327;27;19928;-40
2022/08/24 15:56:47;;;;;;;;;;;25.90;64.00;;;;;;6185396;27;20014;-39
2022/08/24 15:59:50;;;;;;;;;;;26.00;64.10;;;;;;6153609;27;30690;-38
2022/08/24 16:02:51;;;;;;;;;;;26.20;64.30;;;;;;6168963;27;22407;-38
2022/08/24 16:05:53;;;;;;;;;;;26.20;64.20;;;;;;6174219;27;20383;-38
2022/08/24 16:08:58;;;;;;;;;;;26.20;64.30;;;;;;6171633;27;21788;-38
2022/08/24 16:12:01;;;;;;;;;;;26.10;64.10;;;;;;6170277;28;19928;-38
2022/08/24 16:15:12;;;;;;;;;;;26.20;64.20;;;;;;6181869;27;20083;-38
2022/08/24 16:18:14;;;;;;;;;;;26.10;64.10;;;;;;6179614;27;20865;-39
2022/08/24 16:21:19;;;;;;;;;;;26.00;64.00;;;;;;6176991;27;19935;-39
2022/08/24 16:24:28;;;;;;;;;;;26.10;64.10;;;;;;6168979;27;20443;-39
2022/08/24 16:27:52;;;;;;;;;;;26.20;64.20;;;;;;6186556;27;21941;-39
2022/08/24 16:30:54;;;;;;;;;;;26.10;64.10;;;;;;6254794;27;27032;-39
2022/08/24 16:34:08;;;;;;;;;;;26.10;64.10;;;;;;6217283;27;19931;-40
2022/08/24 16:37:10;;;;;;;;;;;26.00;64.00;;;;;;6227924;27;20071;-40
2022/08/24 16:40:11;;;;;;;;;;;26.20;64.10;;;;;;6230102;27;20413;-40
2022/08/24 16:43:13;;;;;;;;;;;26.10;64.00;;;;;;6234080;27;19928;-40
2022/08/24 16:46:18;;;;;;;;;;;26.10;64.00;;;;;;6232150;27;20289;-39
2022/08/24 16:49:20;;;;;;;;;;;26.30;64.00;;;;;;6238000;27;20159;-40
2022/08/24 16:52:21;;;;;;;;;;;26.40;64.10;;;;;;6231964;27;21091;-40
2022/08/24 16:55:23;;;;;;;;;;;26.20;63.90;;;;;;6241777;27;20459;-41
2022/08/24 16:58:26;;;;;;;;;;;26.40;64.00;;;;;;6241912;27;20989;-40
2022/08/24 17:01:28;;;;;;;;;;;26.30;63.90;;;;;;6245863;27;20293;-41
2022/08/24 17:04:29;;;;;;;;;;;26.40;63.90;;;;;;6231047;27;19927;-40
2022/08/24 17:07:34;;;;;;;;;;;26.30;63.90;;;;;;6250377;27;20560;-40
2022/08/24 17:10:35;;;;;;;;;;;26.30;63.90;;;;;;6251422;27;20354;-42
2022/08/24 17:17:20;;;;;;;;;;;26.20;63.80;;;;;;6223053;27;20289;-39
2022/08/24 17:20:22;;;;;;;;;;;26.20;63.90;;;;;;6264671;27;20501;-41
2022/08/24 17:23:23;;;;;;;;;;;26.20;63.80;;;;;;6262304;27;20197;-40
2022/08/24 17:26:26;;;;;;;;;;;25.70;63.50;;;;;;6263539;27;19923;-39
2022/08/24 17:29:27;;;;;;;;;;;26.20;63.80;;;;;;6258924;27;20249;-40
2022/08/24 17:32:29;;;;;;;;;;;26.50;64.10;;;;;;6257263;27;20618;-39
2022/08/24 17:35:31;;;;;;;;;;;26.30;63.90;;;;;;6239856;27;20099;-40
2022/08/24 17:38:32;;;;;;;;;;;26.20;63.80;;;;;;6266571;27;20168;-39
2022/08/24 17:41:34;;;;;;;;;;;26.30;63.90;;;;;;6270018;27;19949;-39
2022/08/24 17:44:36;;;;;;;;;;;26.30;63.90;;;;;;6265449;27;20186;-39
2022/08/24 17:47:38;;;;;;;;;;;26.30;63.80;;;;;;6275927;27;19927;-40
2022/08/24 17:50:39;;;;;;;;;;;26.20;63.70;;;;;;6269589;27;20308;-39
2022/08/24 17:53:41;;;;;;;;;;;26.10;63.70;;;;;;6275308;27;19927;-39
2022/08/24 17:56:45;;;;;;;;;;;26.20;63.80;;;;;;6248188;27;20019;-39
2022/08/24 17:59:49;;;;;;;;;;;26.10;63.60;;;;;;6267820;27;20403;-41
2022/08/24 18:02:51;;;;;;;;;;;25.90;63.50;;;;;;6270262;27;20593;-39
2022/08/24 18:05:52;;;;;;;;;;;26.10;63.60;;;;;;6272728;27;20235;-39
2022/08/24 18:08:57;;;;;;;;;;;26.30;63.80;;;;;;6268089;27;20022;-40
2022/08/24 18:11:58;;;;;;;;;;;26.30;63.80;;;;;;6276752;27;20216;-40
2022/08/24 18:15:00;;;;;;;;;;;26.00;63.50;;;;;;6254846;27;20013;-39
2022/08/24 18:18:04;;;;;;;;;;;26.20;63.70;;;;;;6266954;27;19927;-39
2022/08/24 18:21:05;;;;;;;;;;;26.20;64.30;;;;;;6244909;27;20599;-41